Time;durP1;ratioP1;P1;durP2;ratioP2;P2;SDS_P1;SDS_P2;PMS_P1;PMS_P2;Temp;Humidity;BMP_temperature;BMP_pressure;BME280_temperature;BME280_humidity;BME280_pressure;Samples;Min_cycle;Max_cycle;Signal;HPM_P1;HPM_P2
2021/10/26 00:00:32;;;;;;;22.85;16.30;;;;;;;4.88;100.00;96810.47;5025912;28;20501;-55
2021/10/26 00:03:01;;;;;;;24.42;16.83;;;;;;;5.01;100.00;96813.13;5019029;28;20077;-58
2021/10/26 00:05:31;;;;;;;26.55;16.20;;;;;;;4.92;100.00;96809.34;5024280;28;20088;-55
2021/10/26 00:07:59;;;;;;;26.60;17.77;;;;;;;5.22;100.00;96808.25;5024416;28;20073;-60
2021/10/26 00:10:28;;;;;;;24.50;17.05;;;;;;;5.23;100.00;96810.75;5024022;28;20552;-57
2021/10/26 00:12:56;;;;;;;26.77;15.90;;;;;;;4.93;100.00;96808.41;5018700;28;20061;-56
2021/10/26 00:15:25;;;;;;;18.92;14.13;;;;;;;5.05;100.00;96801.53;5026557;28;20807;-57
2021/10/26 00:17:53;;;;;;;18.58;14.13;;;;;;;5.35;100.00;96811.69;5029247;28;20089;-57
2021/10/26 00:20:22;;;;;;;21.20;14.07;;;;;;;5.42;100.00;96809.50;5030378;28;20065;-55
2021/10/26 00:22:52;;;;;;;19.77;14.18;;;;;;;5.30;100.00;96812.94;5022559;28;20474;-55
2021/10/26 00:25:21;;;;;;;20.80;15.00;;;;;;;5.31;100.00;96815.47;5024176;28;20530;-54
2021/10/26 00:27:49;;;;;;;22.30;15.25;;;;;;;5.35;100.00;96814.31;5040929;28;20084;-59
2021/10/26 00:30:18;;;;;;;22.58;15.77;;;;;;;5.12;100.00;96815.03;5022893;28;20089;-57
2021/10/26 00:32:47;;;;;;;37.15;16.17;;;;;;;5.01;100.00;96823.56;5032494;28;20474;-59
2021/10/26 00:35:16;;;;;;;22.08;15.27;;;;;;;5.09;100.00;96817.84;5029643;28;20079;-57
2021/10/26 00:37:45;;;;;;;19.80;13.70;;;;;;;5.37;100.00;96820.28;5038311;28;20671;-57
2021/10/26 00:40:15;;;;;;;20.60;14.98;;;;;;;5.34;100.00;96820.50;5042253;28;20068;-54
2021/10/26 00:42:44;;;;;;;19.23;14.27;;;;;;;5.61;100.00;96824.78;5037455;28;20077;-55
2021/10/26 00:45:12;;;;;;;20.33;14.35;;;;;;;5.68;100.00;96831.28;5026452;28;20557;-58
2021/10/26 00:47:41;;;;;;;18.67;14.27;;;;;;;5.75;100.00;96829.91;5016052;28;20081;-56
2021/10/26 00:50:10;;;;;;;19.80;13.77;;;;;;;5.74;100.00;96822.16;5038396;28;20069;-56
2021/10/26 00:52:39;;;;;;;22.60;14.63;;;;;;;5.82;100.00;96825.94;5023640;28;20076;-54
2021/10/26 00:55:09;;;;;;;19.27;14.57;;;;;;;5.81;100.00;96821.63;5022878;28;20056;-55
2021/10/26 00:57:39;;;;;;;19.90;14.40;;;;;;;5.90;100.00;96820.16;5033931;28;21084;-58
2021/10/26 01:00:08;;;;;;;;;;;;;;;5.88;100.00;96819.41;5046104;28;20080;-57
2021/10/26 01:02:37;;;;;;;22.95;15.75;;;;;;;5.77;100.00;96821.94;5021484;28;19940;-57
2021/10/26 01:05:06;;;;;;;19.75;13.77;;;;;;;5.63;100.00;96820.28;5040885;28;20079;-56
2021/10/26 01:07:35;;;;;;;18.23;13.05;;;;;;;5.42;100.00;96814.75;5025442;28;20041;-53
2021/10/26 01:10:04;;;;;;;20.65;13.07;;;;;;;4.97;100.00;96817.72;5021845;28;20517;-60
2021/10/26 01:12:33;;;;;;;18.17;13.20;;;;;;;4.79;100.00;96812.88;5011182;28;20081;-57
2021/10/26 01:15:03;;;;;;;15.77;12.90;;;;;;;4.81;100.00;96813.59;5016762;28;20077;-53
2021/10/26 01:17:32;;;;;;;19.83;13.30;;;;;;;4.82;100.00;96815.25;5023022;28;20069;-58
2021/10/26 01:20:03;;;;;;;16.92;12.75;;;;;;;4.81;100.00;96811.81;5030727;28;20073;-57
2021/10/26 01:22:38;;;;;;;17.35;12.52;;;;;;;5.17;100.00;96812.94;5021791;28;20069;-56
2021/10/26 01:25:09;;;;;;;16.65;12.13;;;;;;;5.24;100.00;96812.44;5021716;28;20060;-55
2021/10/26 01:27:41;;;;;;;15.48;11.07;;;;;;;5.22;100.00;96816.91;5017671;28;20990;-52
2021/10/26 01:30:11;;;;;;;36.90;16.73;;;;;;;5.23;100.00;96816.00;5038259;28;20061;-53
2021/10/26 01:32:40;;;;;;;24.77;16.48;;;;;;;5.17;100.00;96810.34;5036845;28;20068;-55
2021/10/26 01:35:10;;;;;;;14.73;11.85;;;;;;;5.09;100.00;96810.81;5025357;28;20060;-57
2021/10/26 01:37:39;;;;;;;18.60;12.07;;;;;;;4.92;100.00;96814.59;5023731;28;20065;-58
2021/10/26 01:40:08;;;;;;;19.55;12.00;;;;;;;4.80;100.00;96811.94;5024907;28;20072;-54
2021/10/26 01:42:37;;;;;;;19.13;11.75;;;;;;;4.49;100.00;96813.91;5021339;28;20453;-60
2021/10/26 01:45:07;;;;;;;16.70;11.02;;;;;;;4.82;100.00;96810.91;5033101;28;20065;-58
2021/10/26 01:47:35;;;;;;;14.93;10.70;;;;;;;5.14;100.00;96813.16;5016950;28;20437;-59
2021/10/26 01:50:05;;;;;;;14.13;10.82;;;;;;;5.00;100.00;96808.84;5022372;28;20183;-58
2021/10/26 01:52:35;;;;;;;13.85;10.90;;;;;;;5.22;100.00;96813.47;5019416;28;20076;-52
2021/10/26 01:55:05;;;;;;;14.98;10.27;;;;;;;5.27;100.00;96808.78;5021542;28;20701;-61
2021/10/26 01:57:34;;;;;;;16.23;10.23;;;;;;;5.35;100.00;96808.25;5016165;28;20088;-51
2021/10/26 02:00:05;;;;;;;14.73;10.57;;;;;;;5.35;100.00;96806.47;5026700;28;20478;-54
2021/10/26 02:02:33;;;;;;;15.20;10.70;;;;;;;5.34;100.00;96820.50;5014296;28;20068;-57
2021/10/26 02:05:02;;;;;;;15.45;11.60;;;;;;;5.39;100.00;96818.41;5020998;28;20078;-55
2021/10/26 02:07:31;;;;;;;18.67;13.38;;;;;;;5.23;100.00;96823.00;5019341;28;20071;-55
2021/10/26 02:10:00;;;;;;;18.58;12.68;;;;;;;5.09;100.00;96813.44;5024586;28;20088;-55
2021/10/26 02:12:29;;;;;;;15.45;11.77;;;;;;;4.97;100.00;96820.34;5026322;28;20119;-58
2021/10/26 02:14:57;;;;;;;13.15;11.15;;;;;;;4.91;100.00;96819.91;5041510;28;20032;-57
2021/10/26 02:17:26;;;;;;;14.98;10.98;;;;;;;4.21;100.00;96831.34;5041856;28;20072;-55
2021/10/26 02:19:55;;;;;;;16.05;10.80;;;;;;;5.02;100.00;96824.41;5029790;28;20524;-60
2021/10/26 02:22:24;;;;;;;18.15;10.90;;;;;;;5.02;100.00;96825.25;5029620;28;20068;-59
2021/10/26 02:24:52;;;;;;;14.63;10.65;;;;;;;4.93;100.00;96828.47;5039722;28;20069;-58
2021/10/26 02:27:22;;;;;;;15.60;10.82;;;;;;;4.83;100.00;96830.84;5028429;28;20072;-58
2021/10/26 02:29:51;;;;;;;13.63;10.45;;;;;;;4.68;100.00;96832.69;5031295;28;20445;-56
2021/10/26 02:32:19;;;;;;;12.32;10.20;;;;;;;4.83;100.00;96827.41;5035644;28;20069;-60
2021/10/26 02:34:48;;;;;;;13.65;10.02;;;;;;;4.61;100.00;96827.94;5030708;28;20075;-61
2021/10/26 02:37:16;;;;;;;14.45;10.05;;;;;;;4.82;100.00;96825.72;5039359;28;20497;-59
2021/10/26 02:39:45;;;;;;;15.50;11.05;;;;;;;4.65;100.00;96829.44;5030762;28;20096;-61
2021/10/26 02:42:13;;;;;;;16.92;11.60;;;;;;;4.85;100.00;96833.34;5028433;28;20065;-60
2021/10/26 02:44:43;;;;;;;18.52;11.80;;;;;;;4.88;100.00;96831.38;5021150;28;20068;-59
2021/10/26 02:47:12;;;;;;;16.63;11.85;;;;;;;5.00;100.00;96832.38;5040253;28;20068;-60
2021/10/26 02:49:40;;;;;;;18.80;11.90;;;;;;;5.05;100.00;96834.66;5044221;28;20064;-58
2021/10/26 02:52:09;;;;;;;17.95;12.68;;;;;;;4.87;100.00;96840.16;5041080;28;20057;-60
2021/10/26 02:54:37;;;;;;;16.75;11.77;;;;;;;4.59;100.00;96837.66;5024926;28;21238;-60
2021/10/26 02:57:06;;;;;;;16.80;12.30;;;;;;;4.99;100.00;96830.69;5030260;28;20064;-60
2021/10/26 02:59:34;;;;;;;16.30;11.50;;;;;;;4.78;100.00;96834.69;5020185;28;20066;-55
2021/10/26 03:02:05;;;;;;;18.42;11.35;;;;;;;4.89;100.00;96837.47;5037850;28;20075;-59
2021/10/26 03:04:34;;;;;;;15.63;10.82;;;;;;;4.89;100.00;96838.31;5033264;28;20564;-57
2021/10/26 03:07:03;;;;;;;16.90;11.65;;;;;;;5.08;100.00;96831.84;5025538;28;20064;-58
2021/10/26 03:09:31;;;;;;;18.42;11.15;;;;;;;4.62;100.00;96827.88;5020602;28;20076;-59
2021/10/26 03:12:00;;;;;;;15.23;10.77;;;;;;;4.64;100.00;96838.19;5029889;28;20077;-60
2021/10/26 03:14:28;;;;;;;13.93;10.35;;;;;;;4.36;100.00;96837.34;5025626;28;20069;-59
2021/10/26 03:16:57;;;;;;;14.48;10.45;;;;;;;4.50;100.00;96832.09;5040509;28;20060;-57
2021/10/26 03:19:26;;;;;;;16.42;10.50;;;;;;;4.55;100.00;96838.81;5029729;28;20076;-59
2021/10/26 03:21:56;;;;;;;13.73;9.88;;;;;;;4.19;100.00;96846.22;5027605;28;20136;-57
2021/10/26 03:24:24;;;;;;;16.08;11.07;;;;;;;4.39;100.00;96845.00;5046376;28;20073;-55
2021/10/26 03:26:54;;;;;;;15.18;10.80;;;;;;;4.11;100.00;96852.88;5043510;28;20084;-59
2021/10/26 03:29:23;;;;;;;14.40;10.85;;;;;;;3.76;100.00;96853.28;5023743;28;20060;-61
2021/10/26 03:31:53;;;;;;;18.75;11.60;;;;;;;3.80;100.00;96862.59;5029901;28;20064;-58
2021/10/26 03:34:22;;;;;;;16.90;11.30;;;;;;;4.12;100.00;96855.38;5047306;28;20069;-60
2021/10/26 03:36:52;;;;;;;15.77;11.38;;;;;;;4.10;100.00;96856.44;5041999;28;20073;-59
2021/10/26 03:39:21;;;;;;;13.63;10.57;;;;;;;3.84;100.00;96860.63;5020254;28;20079;-59
2021/10/26 03:41:49;;;;;;;14.60;11.30;;;;;;;3.59;100.00;96856.06;5020405;28;20069;-57
2021/10/26 03:44:18;;;;;;;14.45;10.48;;;;;;;3.84;100.00;96861.47;5024553;28;20057;-60
2021/10/26 03:46:46;;;;;;;14.15;9.77;;;;;;;4.00;100.00;96861.38;5018050;28;20458;-55
2021/10/26 03:49:15;;;;;;;14.93;9.95;;;;;;;4.03;100.00;96859.41;5020284;28;20116;-57
2021/10/26 03:51:43;;;;;;;15.32;10.88;;;;;;;4.47;100.00;96857.56;5023635;28;20068;-58
2021/10/26 03:54:13;;;;;;;16.20;10.75;;;;;;;4.55;100.00;96859.69;5035970;28;20079;-60
2021/10/26 03:56:42;;;;;;;13.45;9.85;;;;;;;4.65;100.00;96856.41;5023764;28;20061;-59
2021/10/26 03:59:11;;;;;;;14.13;10.25;;;;;;;4.68;100.00;96861.44;5025511;28;20053;-56
2021/10/26 04:01:39;;;;;;;13.52;9.70;;;;;;;4.73;100.00;96859.34;5021057;28;20061;-57
2021/10/26 04:04:08;;;;;;;16.17;9.98;;;;;;;4.79;100.00;96860.75;5026924;28;20061;-58
2021/10/26 04:06:36;;;;;;;14.20;10.43;;;;;;;4.55;100.00;96854.47;5041221;28;20083;-57
2021/10/26 04:09:08;;;;;;;13.38;10.43;;;;;;;4.62;100.00;96855.75;5041556;28;20099;-58
2021/10/26 04:11:51;;;;;;;14.77;10.07;;;;;;;4.65;100.00;96866.03;5024837;28;20064;-61
2021/10/26 04:14:19;;;;;;;16.92;10.65;;;;;;;4.54;100.00;96864.06;5038492;28;20076;-56
2021/10/26 04:16:48;;;;;;;16.92;10.73;;;;;;;4.62;100.00;96866.22;5030642;28;20079;-57
2021/10/26 04:19:16;;;;;;;12.32;9.90;;;;;;;4.72;100.00;96870.75;5031345;28;20056;-58
2021/10/26 04:21:45;;;;;;;15.80;9.85;;;;;;;4.73;100.00;96879.41;5046478;28;20072;-59
2021/10/26 04:24:14;;;;;;;14.02;9.48;;;;;;;4.73;100.00;96871.56;5050846;28;20076;-59
2021/10/26 04:26:43;;;;;;;13.27;9.23;;;;;;;4.72;100.00;96877.75;5035600;28;20068;-59
2021/10/26 04:29:12;;;;;;;14.43;9.70;;;;;;;4.75;100.00;96885.38;5046659;28;20452;-56
2021/10/26 04:31:41;;;;;;;11.68;8.88;;;;;;;4.92;100.00;96877.31;5041833;28;20074;-60
2021/10/26 04:34:09;;;;;;;10.75;9.02;;;;;;;4.96;100.00;96877.94;5032799;28;20068;-57
2021/10/26 04:36:38;;;;;;;10.68;8.48;;;;;;;5.03;100.00;96878.38;5038495;28;22755;-60
2021/10/26 04:39:06;;;;;;;11.50;9.13;;;;;;;5.06;100.00;96886.00;5033720;28;20073;-60
2021/10/26 04:41:34;;;;;;;11.07;8.60;;;;;;;5.12;100.00;96885.59;5039402;28;20068;-61
2021/10/26 04:44:05;;;;;;;11.50;8.80;;;;;;;5.14;100.00;96886.34;5050214;28;20068;-59
2021/10/26 04:46:34;;;;;;;11.85;8.52;;;;;;;5.19;100.00;96892.94;5047018;28;20079;-57
2021/10/26 04:49:03;;;;;;;13.93;8.43;;;;;;;5.23;100.00;96890.97;5040902;28;20057;-60
2021/10/26 04:51:31;;;;;;;10.13;8.18;;;;;;;5.24;100.00;96896.09;5027016;28;20081;-54
2021/10/26 04:54:00;;;;;;;10.65;8.55;;;;;;;5.21;100.00;96896.31;5019604;28;20092;-61
2021/10/26 04:56:29;;;;;;;10.27;7.75;;;;;;;5.28;100.00;96894.13;5031765;28;20061;-61
2021/10/26 04:58:57;;;;;;;10.45;8.20;;;;;;;5.21;100.00;96893.69;5040631;28;20117;-61
2021/10/26 05:01:27;;;;;;;11.88;8.27;;;;;;;5.29;100.00;96900.19;5047186;28;20084;-57
2021/10/26 05:03:56;;;;;;;12.68;8.88;;;;;;;5.31;100.00;96903.53;5047393;28;20520;-58
2021/10/26 05:06:24;;;;;;;11.35;7.85;;;;;;;5.27;100.00;96902.91;5033465;28;20231;-58
2021/10/26 05:08:53;;;;;;;10.32;9.02;;;;;;;5.12;100.00;96911.75;5016428;28;20537;-55
2021/10/26 05:11:23;;;;;;;11.32;8.05;;;;;;;4.80;100.00;96916.44;5023634;28;20061;-59
2021/10/26 05:13:52;;;;;;;11.18;8.77;;;;;;;4.67;100.00;96925.03;5023872;28;20064;-62
2021/10/26 05:16:20;;;;;;;12.60;8.38;;;;;;;4.58;100.00;96917.81;5034800;28;20072;-60
2021/10/26 05:18:53;;;;;;;10.05;8.32;;;;;;;4.73;100.00;96918.59;5046821;28;20325;-59
2021/10/26 05:21:21;;;;;;;11.50;8.57;;;;;;;5.09;100.00;96911.94;5037617;28;20099;-58
2021/10/26 05:23:51;;;;;;;33.65;21.60;;;;;;;5.16;100.00;96911.47;5035181;28;20069;-56
2021/10/26 05:26:20;;;;;;;20.27;14.10;;;;;;;5.26;100.00;96916.91;5043437;28;20069;-61
2021/10/26 05:28:49;;;;;;;12.00;9.43;;;;;;;5.28;100.00;96915.03;5043504;28;20068;-59
2021/10/26 05:31:18;;;;;;;12.05;8.10;;;;;;;5.34;100.00;96917.25;5039463;28;20068;-58
2021/10/26 05:33:47;;;;;;;11.88;8.00;;;;;;;5.41;100.00;96922.94;5039826;28;20539;-62
2021/10/26 05:36:17;;;;;;;11.13;7.43;;;;;;;5.42;100.00;96925.41;5051731;28;20087;-60
2021/10/26 05:38:46;;;;;;;10.52;7.30;;;;;;;5.44;100.00;96927.97;5025930;28;21374;-59
2021/10/26 05:41:15;;;;;;;10.93;7.78;;;;;;;5.36;100.00;96930.22;5026430;28;20072;-61
2021/10/26 05:43:43;;;;;;;8.55;6.97;;;;;;;4.91;100.00;96940.09;5026217;28;20325;-60
2021/10/26 05:46:11;;;;;;;9.57;8.18;;;;;;;5.27;100.00;96931.69;5026504;28;20077;-59
2021/10/26 05:48:40;;;;;;;10.52;7.95;;;;;;;5.43;100.00;96934.94;5025987;28;20084;-56
2021/10/26 05:51:08;;;;;;;12.02;7.60;;;;;;;5.19;100.00;96941.78;5038015;28;20076;-62
2021/10/26 05:53:38;;;;;;;8.32;7.30;;;;;;;5.41;100.00;96934.22;5011516;28;20639;-59
2021/10/26 05:56:07;;;;;;;12.70;7.60;;;;;;;5.41;100.00;96938.63;5021383;28;20498;-59
2021/10/26 05:58:36;;;;;;;8.75;7.20;;;;;;;5.57;100.00;96946.28;5018529;28;20072;-57
2021/10/26 06:01:04;;;;;;;11.60;7.60;;;;;;;5.63;100.00;96941.47;5049269;28;20080;-60
2021/10/26 06:03:33;;;;;;;11.15;8.00;;;;;;;5.60;100.00;96940.84;5047787;28;20084;-59
2021/10/26 06:06:02;;;;;;;8.50;7.60;;;;;;;5.61;100.00;96947.72;5019841;28;20089;-61
2021/10/26 06:08:31;;;;;;;10.90;7.47;;;;;;;5.74;100.00;96956.44;5025278;28;20077;-57
2021/10/26 06:11:05;;;;;;;8.98;7.25;;;;;;;5.86;100.00;96958.25;5043870;28;20079;-60
2021/10/26 06:13:35;;;;;;;11.10;7.22;;;;;;;6.04;100.00;96963.22;5032953;28;20188;-58
2021/10/26 06:16:05;;;;;;;8.98;7.40;;;;;;;6.35;100.00;96964.56;5032277;28;20065;-59
2021/10/26 06:18:33;;;;;;;10.05;7.25;;;;;;;6.57;100.00;96974.38;5044001;28;20091;-62
2021/10/26 06:21:02;;;;;;;10.55;7.47;;;;;;;6.83;100.00;96972.56;5047646;28;20088;-56
2021/10/26 06:23:31;;;;;;;10.60;7.18;;;;;;;6.87;100.00;96974.84;5042691;28;20503;-58
2021/10/26 06:26:01;;;;;;;11.45;7.63;;;;;;;7.11;100.00;96966.19;5023686;28;20084;-61
2021/10/26 06:28:30;;;;;;;12.13;6.78;;;;;;;7.30;100.00;96971.78;5029341;28;20081;-61
2021/10/26 06:30:58;;;;;;;12.50;7.50;;;;;;;7.51;100.00;96964.13;5034788;28;20551;-61
2021/10/26 06:33:27;;;;;;;8.32;6.75;;;;;;;7.51;100.00;96977.25;5049025;28;20517;-59
2021/10/26 06:35:55;;;;;;;8.68;7.28;;;;;;;7.55;100.00;96970.81;5055951;28;20131;-59
2021/10/26 06:38:24;;;;;;;10.45;7.60;;;;;;;7.20;100.00;96978.66;5019067;28;20483;-61
2021/10/26 06:40:52;;;;;;;14.57;7.82;;;;;;;7.01;100.00;96983.53;5009527;28;20077;-60
2021/10/26 06:43:22;;;;;;;10.75;6.80;;;;;;;7.07;100.00;96980.47;5037385;28;20551;-59
2021/10/26 06:45:51;;;;;;;17.80;11.50;;;;;;;7.30;100.00;96984.91;5053084;28;20068;-56
2021/10/26 06:48:22;;;;;;;25.85;15.15;;;;;;;7.53;100.00;96998.09;5049525;28;20092;-60
2021/10/26 06:50:50;;;;;;;16.77;11.02;;;;;;;7.84;100.00;96984.41;5045667;28;20100;-58
2021/10/26 06:53:19;;;;;;;14.00;8.85;;;;;;;7.45;100.00;97003.94;5036097;28;20065;-56
2021/10/26 06:55:48;;;;;;;8.90;6.75;;;;;;;7.63;100.00;97001.72;5044257;28;20080;-59
2021/10/26 06:58:16;;;;;;;7.65;6.30;;;;;;;8.09;100.00;97001.78;5046501;28;20057;-57
2021/10/26 07:00:46;;;;;;;7.93;6.20;;;;;;;7.89;100.00;97006.84;5040207;28;20069;-60
2021/10/26 07:03:15;;;;;;;9.18;5.72;;;;;;;8.33;100.00;97006.13;5019433;28;20089;-54
2021/10/26 07:05:43;;;;;;;5.78;5.18;;;;;;;8.28;100.00;97006.47;5019894;28;20069;-55
2021/10/26 07:08:12;;;;;;;9.38;5.82;;;;;;;8.77;100.00;96999.25;5027136;28;20080;-60
2021/10/26 07:10:40;;;;;;;8.82;5.97;;;;;;;8.75;100.00;97009.88;5023965;28;20095;-59
2021/10/26 07:13:09;;;;;;;6.45;5.60;;;;;;;8.91;100.00;97012.16;5035262;28;20095;-59
2021/10/26 07:15:37;;;;;;;6.75;5.57;;;;;;;9.15;100.00;97006.75;5040851;28;20081;-58
2021/10/26 07:18:07;;;;;;;8.13;5.47;;;;;;;9.38;100.00;97012.78;5044318;28;20472;-60
2021/10/26 07:20:35;;;;;;;9.45;5.53;;;;;;;9.46;100.00;97020.94;5046736;28;20068;-60
2021/10/26 07:23:08;;;;;;;9.82;5.90;;;;;;;9.65;100.00;97017.63;5030519;28;20081;-59
2021/10/26 07:25:36;;;;;;;9.15;5.93;;;;;;;9.43;100.00;97018.53;5037004;28;20572;-61
2021/10/26 07:28:05;;;;;;;11.73;6.50;;;;;;;9.23;100.00;97017.50;5041838;28;20080;-56
2021/10/26 07:30:35;;;;;;;14.68;6.65;;;;;;;9.62;100.00;97024.94;5031234;28;20716;-61
2021/10/26 07:33:07;;;;;;;10.13;6.70;;;;;;;9.81;100.00;97024.28;5029430;28;20088;-57
2021/10/26 07:35:40;;;;;;;11.18;7.18;;;;;;;9.83;100.00;97022.34;5030348;28;20475;-62
2021/10/26 07:38:13;;;;;;;10.90;6.13;;;;;;;9.86;100.00;97022.91;5038133;28;20083;-58
2021/10/26 07:40:42;;;;;;;11.88;5.70;;;;;;;9.95;100.00;97027.44;5031919;28;20068;-59
2021/10/26 07:43:11;;;;;;;10.85;6.22;;;;;;;9.88;100.00;97026.28;5034475;28;20060;-60
2021/10/26 07:45:39;;;;;;;17.65;9.85;;;;;;;9.51;100.00;97025.81;5028256;28;20155;-57
2021/10/26 07:48:07;;;;;;;16.42;7.40;;;;;;;9.05;100.00;97029.50;5023162;28;20089;-59
2021/10/26 07:50:37;;;;;;;8.55;6.40;;;;;;;9.59;100.00;97030.44;5015240;28;20069;-60
2021/10/26 07:53:06;;;;;;;9.82;6.80;;;;;;;9.95;100.00;97034.53;5019298;28;20081;-59
2021/10/26 07:55:35;;;;;;;13.43;6.85;;;;;;;10.12;100.00;97039.22;5041598;28;20067;-58
2021/10/26 07:58:03;;;;;;;9.30;6.13;;;;;;;10.62;100.00;97031.50;5041160;28;20075;-58
2021/10/26 08:00:31;;;;;;;8.20;5.65;;;;;;;10.94;100.00;97027.91;5043037;28;20084;-59
2021/10/26 08:03:00;;;;;;;15.75;6.88;;;;;;;12.03;100.00;97024.38;5031235;28;20115;-58
2021/10/26 08:05:29;;;;;;;9.57;6.22;;;;;;;11.58;100.00;97037.25;5019465;28;20069;-58
2021/10/26 08:07:59;;;;;;;8.27;5.60;;;;;;;11.57;100.00;97039.09;5022276;28;20068;-59
2021/10/26 08:10:28;;;;;;;10.88;5.90;;;;;;;12.06;100.00;97039.97;5036999;28;20469;-58
2021/10/26 08:12:57;;;;;;;8.93;5.78;;;;;;;12.01;100.00;97047.50;5036493;28;20524;-55
2021/10/26 08:15:25;;;;;;;12.05;6.28;;;;;;;12.09;100.00;97047.63;5042271;28;20545;-59
2021/10/26 08:17:54;;;;;;;13.52;6.45;;;;;;;12.18;100.00;97053.03;5050521;28;20085;-59
2021/10/26 08:20:22;;;;;;;10.40;6.40;;;;;;;12.34;100.00;97040.91;5047815;28;20060;-59
2021/10/26 08:22:51;;;;;;;10.90;6.68;;;;;;;12.97;100.00;97044.81;5031009;28;20069;-57
2021/10/26 08:25:23;;;;;;;11.15;7.00;;;;;;;12.67;100.00;97046.72;5010188;28;20069;-62
2021/10/26 08:27:55;;;;;;;9.85;6.63;;;;;;;12.87;100.00;97044.88;5018632;28;20087;-56
2021/10/26 08:30:32;;;;;;;17.20;7.93;;;;;;;12.45;100.00;97047.03;5034094;28;20081;-58
2021/10/26 08:33:12;;;;;;;10.13;7.18;;;;;;;12.67;100.00;97041.44;5042569;28;20489;-60
2021/10/26 08:35:40;;;;;;;13.02;7.38;;;;;;;12.55;100.00;97047.84;5014523;28;20081;-55
2021/10/26 08:38:09;;;;;;;13.98;7.60;;;;;;;12.94;100.00;97035.34;5016428;28;20169;-59
2021/10/26 08:40:46;;;;;;;11.10;7.45;;;;;;;13.04;100.00;97043.25;5041457;28;20063;-59
2021/10/26 08:43:16;;;;;;;11.18;7.28;;;;;;;13.23;100.00;97035.22;5037675;28;20080;-55
2021/10/26 08:45:48;;;;;;;8.60;6.53;;;;;;;13.29;100.00;97041.78;5010512;28;20069;-59
2021/10/26 08:48:20;;;;;;;12.57;7.95;;;;;;;13.15;100.00;97048.38;5025970;28;20525;-60
2021/10/26 08:50:55;;;;;;;14.23;7.65;;;;;;;13.08;100.00;97042.00;5021570;28;20697;-58
2021/10/26 08:53:24;;;;;;;11.38;7.53;;;;;;;13.11;100.00;97047.00;5019964;28;20042;-59
2021/10/26 08:55:58;;;;;;;23.40;15.00;;;;;;;12.94;100.00;97047.75;5019982;28;20065;-57
2021/10/26 08:58:28;;;;;;;11.45;7.82;;;;;;;13.00;100.00;97049.81;5035090;28;20482;-59
2021/10/26 09:00:59;;;;;;;10.27;7.72;;;;;;;12.99;100.00;97053.44;5032581;28;20069;-59
2021/10/26 09:03:33;;;;;;;13.93;8.10;;;;;;;12.93;100.00;97056.66;5045952;28;20080;-59
2021/10/26 09:06:02;;;;;;;16.80;8.02;;;;;;;12.91;100.00;97053.34;5036488;28;20521;-62
2021/10/26 09:08:30;;;;;;;11.35;8.00;;;;;;;13.02;100.00;97050.50;5040834;28;20091;-59
2021/10/26 09:11:14;;;;;;;12.90;7.65;;;;;;;13.50;100.00;97049.47;5041098;28;20064;-60
2021/10/26 09:16:44;;;;;;;14.18;8.43;;;;;;;13.93;100.00;97045.28;5035901;28;20099;-58
2021/10/26 09:19:15;;;;;;;15.52;8.82;;;;;;;13.64;100.00;97040.19;5025093;28;20068;-61
2021/10/26 09:21:47;;;;;;;10.77;8.32;;;;;;;13.77;100.00;97038.84;5021866;28;20072;-59
2021/10/26 09:24:16;;;;;;;17.77;8.38;;;;;;;13.78;100.00;97042.31;5048713;28;20081;-62
2021/10/26 09:26:50;;;;;;;13.15;8.23;;;;;;;14.10;100.00;97044.44;5045815;28;20484;-60
2021/10/26 09:29:23;;;;;;;13.00;8.25;;;;;;;13.71;100.00;97047.38;5030439;28;20072;-60
2021/10/26 09:31:52;;;;;;;14.60;8.65;;;;;;;14.43;100.00;97034.94;5040301;28;20574;-60
2021/10/26 09:34:20;;;;;;;14.68;8.65;;;;;;;14.45;100.00;97040.94;5039400;28;20072;-62
2021/10/26 09:36:52;;;;;;;14.43;8.45;;;;;;;14.91;100.00;97040.78;5040841;28;20076;-62
2021/10/26 09:39:23;;;;;;;17.73;8.73;;;;;;;15.42;100.00;97042.50;5039206;28;20537;-60
2021/10/26 09:42:08;;;;;;;15.68;8.52;;;;;;;15.35;100.00;97045.97;5037625;28;20083;-59
2021/10/26 09:44:43;;;;;;;17.08;8.73;;;;;;;15.42;100.00;97050.47;5044173;28;20071;-58
2021/10/26 09:47:17;;;;;;;14.60;8.50;;;;;;;16.38;100.00;97034.06;5031873;28;20065;-60
2021/10/26 09:49:52;;;;;;;12.32;8.07;;;;;;;16.23;100.00;97041.03;5042497;28;20076;-61
2021/10/26 09:52:24;;;;;;;14.30;8.38;;;;;;;16.02;100.00;97043.34;5041021;28;20049;-62
2021/10/26 09:55:13;;;;;;;12.15;8.35;;;;;;;15.96;100.00;97038.69;5034632;28;20539;-59
2021/10/26 09:57:46;;;;;;;15.43;9.15;;;;;;;16.36;100.00;97028.06;5044266;28;20478;-60
2021/10/26 10:00:21;;;;;;;13.05;10.25;;;;;;;16.65;100.00;97028.53;5026047;28;20467;-60
2021/10/26 10:03:03;;;;;;;15.77;10.07;;;;;;;15.54;100.00;97035.06;5021624;28;20223;-61
2021/10/26 10:05:33;;;;;;;15.48;9.93;;;;;;;15.26;100.00;97044.25;5022287;28;20551;-61
2021/10/26 10:08:18;;;;;;;;;;;;;;;14.91;100.00;97044.25;5033785;28;20477;-61
2021/10/26 10:10:46;;;;;;;14.80;9.80;;;;;;;14.94;100.00;97049.25;5037895;28;19960;-62
2021/10/26 10:13:17;;;;;;;15.98;9.60;;;;;;;14.30;100.00;97050.44;5044504;28;20068;-60
2021/10/26 10:15:47;;;;;;;14.85;10.48;;;;;;;14.64;100.00;97053.19;5037866;28;20478;-59
2021/10/26 10:18:17;;;;;;;13.77;10.25;;;;;;;15.64;100.00;97040.25;5012692;28;20083;-61
2021/10/26 10:20:48;;;;;;;15.43;9.73;;;;;;;15.20;100.00;97037.75;5026263;28;20455;-60
2021/10/26 10:23:18;;;;;;;20.08;9.93;;;;;;;14.36;100.00;97031.25;5033314;28;20061;-61
2021/10/26 10:25:48;;;;;;;16.50;10.18;;;;;;;14.66;100.00;97035.31;5043047;28;20446;-60
2021/10/26 10:28:18;;;;;;;15.23;9.93;;;;;;;14.67;100.00;97034.31;5048659;28;20065;-60
2021/10/26 10:30:49;;;;;;;;;;;;;;;15.25;100.00;97029.31;5050256;28;20076;-60
2021/10/26 10:33:18;;;;;;;16.27;10.27;;;;;;;15.34;100.00;97026.50;5049795;28;19964;-60
2021/10/26 10:35:48;;;;;;;15.32;10.60;;;;;;;15.84;100.00;97031.03;5048754;28;20065;-59
2021/10/26 10:38:18;;;;;;;15.15;10.82;;;;;;;15.42;100.00;97029.22;5050922;28;20041;-61
2021/10/26 10:40:46;;;;;;;16.13;11.05;;;;;;;15.89;100.00;97027.84;5031791;28;20061;-60
2021/10/26 10:43:15;;;;;;;17.42;11.50;;;;;;;15.48;100.00;97030.38;5027396;28;20073;-62
2021/10/26 10:45:46;;;;;;;16.17;11.68;;;;;;;15.57;100.00;97039.22;5043836;28;20079;-59
2021/10/26 10:48:27;;;;;;;16.40;11.98;;;;;;;15.72;100.00;97027.00;5048069;28;20081;-60
2021/10/26 10:51:09;;;;;;;18.15;11.45;;;;;;;15.35;100.00;97022.88;5024195;28;20069;-61
2021/10/26 10:53:39;;;;;;;19.55;12.13;;;;;;;15.40;100.00;97027.69;5019137;28;20069;-58
2021/10/26 10:56:16;;;;;;;15.48;11.02;;;;;;;15.36;100.00;97021.88;5029269;28;20533;-62
2021/10/26 10:58:46;;;;;;;16.45;11.15;;;;;;;15.24;100.00;97022.31;5031405;28;20077;-60
2021/10/26 11:01:33;;;;;;;15.50;10.80;;;;;;;15.69;100.00;97016.72;5030453;28;20422;-57
2021/10/26 11:04:38;;;;;;;18.10;11.57;;;;;;;15.55;100.00;97026.06;5021354;28;20066;-60
2021/10/26 11:07:07;;;;;;;17.80;10.75;;;;;;;15.79;100.00;97019.19;5027574;28;20072;-57
2021/10/26 11:09:45;;;;;;;15.43;11.02;;;;;;;15.59;100.00;97016.81;5028500;28;20450;-60
2021/10/26 11:12:17;;;;;;;19.13;11.43;;;;;;;15.57;100.00;97034.75;5026500;28;20072;-60
2021/10/26 11:14:48;;;;;;;17.42;11.38;;;;;;;15.61;100.00;97022.78;5047509;28;20207;-60
2021/10/26 11:17:50;;;;;;;16.65;11.00;;;;;;;15.88;100.00;97023.53;5043413;28;20056;-58
2021/10/26 11:20:44;;;;;;;18.15;10.95;;;;;;;16.19;100.00;97023.75;5035268;28;20076;-62
2021/10/26 11:23:15;;;;;;;16.80;11.13;;;;;;;16.12;100.00;97025.41;5021189;28;20073;-60
2021/10/26 11:25:46;;;;;;;17.80;10.82;;;;;;;16.52;100.00;97029.06;5022179;28;20068;-60
2021/10/26 11:28:33;;;;;;;;;;;;;;;15.78;100.00;97031.66;5022031;28;20061;-60
2021/10/26 11:31:05;;;;;;;16.52;10.73;;;;;;;16.38;100.00;97026.06;5027831;28;19964;-60
2021/10/26 11:33:37;;;;;;;16.30;11.25;;;;;;;15.75;100.00;97028.50;5046420;28;20080;-61
2021/10/26 11:36:08;;;;;;;15.05;10.60;;;;;;;15.61;100.00;97032.59;5037535;28;20080;-61
2021/10/26 11:38:40;;;;;;;14.77;10.43;;;;;;;16.32;100.00;97024.06;5023513;28;20135;-60